METAR AND TAF INFORMATION
METAR FOR LEAB
ADDS - METARS form results

(0807 UTC 03 February 2023)
Data provider http://aviationweather.gov/metar/data/
 
METAR text: LEAB 030800Z 23002KT CAVOK M05/M06 Q1032 NOSIG
Conditions at: LEAB (ALBACETE (CIV/MI, ES) observed 0800 UTC 03 February 2023
Temperature: -5.0°C (23°F)
Dewpoint: -6.0°C (21°F) [RH = 93%]
Pressure (altimeter): 30.47 inches Hg (1032.0 mb)
Winds: from the SW (230 degrees) at 2 MPH (2 knots; 1.0 m/s)
Visibility: 6 or more miles (10+ km)
Ceiling: ceiling and visibility are OK
Clouds: unknown
Weather: no significant weather observed at this time

METAR text: LEAB 030730Z 19002KT CAVOK M05/M07 Q1031 NOSIG
Conditions at: LEAB (ALBACETE (CIV/MI, ES) observed 0730 UTC 03 February 2023
Temperature: -5.0°C (23°F)
Dewpoint: -7.0°C (19°F) [RH = 86%]
Pressure (altimeter): 30.44 inches Hg (1031.0 mb)
Winds: from the S (190 degrees) at 2 MPH (2 knots; 1.0 m/s)
Visibility: 6 or more miles (10+ km)
Ceiling: ceiling and visibility are OK
Clouds: unknown
Weather: no significant weather observed at this time

Forecast for: LEAB (ALBACETE (CIV/MI, ES)
Text: TAF LEAB 030500Z 0306/0406 VRB05KT CAVOK TX16/0315Z TNM01/0406Z
Forecast period: 0600 UTC 03 February 2023 to 0600 UTC 04 February 2023
Forecast type: FROM: standard forecast or significant change
Winds: variable direction winds at 6 MPH (5 knots; 2.6 m/s)
Visibility: 6 or more miles (10+ km)
Ceiling: unknown
Clouds: missing
Weather: no significant weather forecast for this period

 AIRPORT MAP

 RUNWAY INFORMATION
Runway 09 Runway length 8858 ft Runway width 197 ft
Runway elevation 2281 ft Runway displaced threshold 0 ft Runway heading 87
Runway 27 Runway length 8858 ft Runway width 197 ft
Runway elevation 2302 ft Runway displaced threshold 0 ft Runway heading 267

 AIRPORT FREQUENCIES
Type APP Name APP Frequency 118.725 MHZ
Type GND Name GND Frequency 121.8 MHZ
Type TWR Name TWR Frequency 122.1 MHZ

 AIRPORT NEAR NAVIGATION AIDS
Type NDB Name Albacete Frequency 321 KHZ
Type TACAN Name Albacete Frequency 108000 KHZ
Type VOR-DME Name Albacete Frequency 115800 KHZ